sensor_id;sensor_type;location;lat;lon;timestamp;P1;durP1;ratioP1;P2;durP2;ratioP2
5801;SDS011;2927;49.366;8.530;2022-12-05T00:03:59;65.60;;;18.80;;
5801;SDS011;2927;49.366;8.530;2022-12-05T00:06:27;65.63;;;18.73;;
5801;SDS011;2927;49.366;8.530;2022-12-05T00:08:54;55.03;;;18.90;;
5801;SDS011;2927;49.366;8.530;2022-12-05T00:11:21;52.40;;;18.87;;
5801;SDS011;2927;49.366;8.530;2022-12-05T00:13:50;60.00;;;19.30;;
5801;SDS011;2927;49.366;8.530;2022-12-05T00:16:18;69.10;;;19.73;;
5801;SDS011;2927;49.366;8.530;2022-12-05T00:18:45;69.23;;;22.50;;
5801;SDS011;2927;49.366;8.530;2022-12-05T00:21:12;61.30;;;19.97;;
5801;SDS011;2927;49.366;8.530;2022-12-05T00:23:40;68.20;;;19.47;;
5801;SDS011;2927;49.366;8.530;2022-12-05T00:26:06;69.20;;;20.60;;
5801;SDS011;2927;49.366;8.530;2022-12-05T00:28:32;58.87;;;19.80;;
5801;SDS011;2927;49.366;8.530;2022-12-05T00:31:02;58.73;;;21.10;;
5801;SDS011;2927;49.366;8.530;2022-12-05T00:33:28;79.17;;;24.07;;
5801;SDS011;2927;49.366;8.530;2022-12-05T00:35:54;62.50;;;21.40;;
5801;SDS011;2927;49.366;8.530;2022-12-05T00:38:20;59.20;;;22.07;;
5801;SDS011;2927;49.366;8.530;2022-12-05T00:40:45;74.53;;;20.40;;
5801;SDS011;2927;49.366;8.530;2022-12-05T00:43:11;75.23;;;21.40;;
5801;SDS011;2927;49.366;8.530;2022-12-05T00:45:36;60.27;;;19.27;;
5801;SDS011;2927;49.366;8.530;2022-12-05T00:48:02;74.73;;;20.60;;
5801;SDS011;2927;49.366;8.530;2022-12-05T00:50:27;68.10;;;22.40;;
5801;SDS011;2927;49.366;8.530;2022-12-05T00:52:53;75.77;;;22.50;;
5801;SDS011;2927;49.366;8.530;2022-12-05T00:55:18;58.63;;;20.40;;
5801;SDS011;2927;49.366;8.530;2022-12-05T00:57:44;76.10;;;19.80;;
5801;SDS011;2927;49.366;8.530;2022-12-05T01:00:09;78.07;;;21.20;;
5801;SDS011;2927;49.366;8.530;2022-12-05T01:02:35;98.43;;;24.43;;
5801;SDS011;2927;49.366;8.530;2022-12-05T01:05:01;72.20;;;22.63;;
5801;SDS011;2927;49.366;8.530;2022-12-05T01:07:26;82.03;;;24.70;;
5801;SDS011;2927;49.366;8.530;2022-12-05T01:09:52;68.80;;;24.30;;
5801;SDS011;2927;49.366;8.530;2022-12-05T01:12:18;65.90;;;22.10;;
5801;SDS011;2927;49.366;8.530;2022-12-05T01:14:43;76.80;;;21.70;;
5801;SDS011;2927;49.366;8.530;2022-12-05T01:17:09;77.37;;;23.03;;
5801;SDS011;2927;49.366;8.530;2022-12-05T01:19:34;77.57;;;22.97;;
5801;SDS011;2927;49.366;8.530;2022-12-05T01:22:00;74.20;;;22.30;;
5801;SDS011;2927;49.366;8.530;2022-12-05T01:24:26;78.27;;;22.23;;
5801;SDS011;2927;49.366;8.530;2022-12-05T01:26:53;76.57;;;22.57;;
5801;SDS011;2927;49.366;8.530;2022-12-05T01:29:20;93.17;;;25.33;;
5801;SDS011;2927;49.366;8.530;2022-12-05T01:31:46;71.70;;;22.60;;
5801;SDS011;2927;49.366;8.530;2022-12-05T01:34:13;64.67;;;21.43;;
5801;SDS011;2927;49.366;8.530;2022-12-05T01:36:40;74.57;;;21.90;;
5801;SDS011;2927;49.366;8.530;2022-12-05T01:39:06;79.50;;;24.27;;
5801;SDS011;2927;49.366;8.530;2022-12-05T01:41:35;76.93;;;22.53;;
5801;SDS011;2927;49.366;8.530;2022-12-05T01:44:06;93.83;;;21.90;;
5801;SDS011;2927;49.366;8.530;2022-12-05T01:46:52;83.43;;;22.87;;
5801;SDS011;2927;49.366;8.530;2022-12-05T01:52:22;71.50;;;23.80;;
5801;SDS011;2927;49.366;8.530;2022-12-05T01:54:47;81.30;;;22.57;;
5801;SDS011;2927;49.366;8.530;2022-12-05T01:57:18;66.37;;;20.57;;
5801;SDS011;2927;49.366;8.530;2022-12-05T01:59:44;71.57;;;24.00;;
5801;SDS011;2927;49.366;8.530;2022-12-05T02:02:14;75.57;;;22.30;;
5801;SDS011;2927;49.366;8.530;2022-12-05T02:04:42;63.07;;;19.27;;
5801;SDS011;2927;49.366;8.530;2022-12-05T02:07:19;72.73;;;20.50;;
5801;SDS011;2927;49.366;8.530;2022-12-05T02:09:45;68.43;;;21.73;;
5801;SDS011;2927;49.366;8.530;2022-12-05T02:12:14;67.90;;;19.77;;
5801;SDS011;2927;49.366;8.530;2022-12-05T02:34:23;67.30;;;24.63;;
5801;SDS011;2927;49.366;8.530;2022-12-05T02:39:24;73.60;;;20.43;;
5801;SDS011;2927;49.366;8.530;2022-12-05T02:42:12;85.13;;;23.43;;
5801;SDS011;2927;49.366;8.530;2022-12-05T02:44:49;75.37;;;21.73;;
5801;SDS011;2927;49.366;8.530;2022-12-05T02:47:48;61.50;;;20.83;;
5801;SDS011;2927;49.366;8.530;2022-12-05T02:50:18;73.87;;;19.50;;
5801;SDS011;2927;49.366;8.530;2022-12-05T02:52:47;87.80;;;22.83;;
5801;SDS011;2927;49.366;8.530;2022-12-05T02:55:14;82.93;;;22.63;;
5801;SDS011;2927;49.366;8.530;2022-12-05T02:57:47;57.63;;;20.20;;
5801;SDS011;2927;49.366;8.530;2022-12-05T03:00:16;73.67;;;21.13;;
5801;SDS011;2927;49.366;8.530;2022-12-05T03:02:42;63.07;;;20.93;;
5801;SDS011;2927;49.366;8.530;2022-12-05T03:08:05;60.60;;;20.20;;
5801;SDS011;2927;49.366;8.530;2022-12-05T03:10:34;57.83;;;19.60;;
5801;SDS011;2927;49.366;8.530;2022-12-05T03:13:04;83.13;;;20.93;;
5801;SDS011;2927;49.366;8.530;2022-12-05T03:15:36;76.83;;;21.67;;
5801;SDS011;2927;49.366;8.530;2022-12-05T03:18:10;68.23;;;21.37;;
5801;SDS011;2927;49.366;8.530;2022-12-05T03:20:45;82.23;;;23.30;;
5801;SDS011;2927;49.366;8.530;2022-12-05T03:23:15;82.93;;;22.73;;
5801;SDS011;2927;49.366;8.530;2022-12-05T03:26:17;81.83;;;21.57;;
5801;SDS011;2927;49.366;8.530;2022-12-05T03:32:01;76.33;;;21.17;;
5801;SDS011;2927;49.366;8.530;2022-12-05T03:35:01;81.73;;;22.57;;
5801;SDS011;2927;49.366;8.530;2022-12-05T03:37:34;66.67;;;22.43;;
5801;SDS011;2927;49.366;8.530;2022-12-05T03:40:12;86.90;;;22.83;;
5801;SDS011;2927;49.366;8.530;2022-12-05T03:42:59;70.43;;;22.00;;
5801;SDS011;2927;49.366;8.530;2022-12-05T03:45:40;66.07;;;20.67;;
5801;SDS011;2927;49.366;8.530;2022-12-05T03:48:28;76.63;;;21.77;;
5801;SDS011;2927;49.366;8.530;2022-12-05T03:51:03;60.50;;;19.50;;
5801;SDS011;2927;49.366;8.530;2022-12-05T03:54:05;97.03;;;21.80;;
5801;SDS011;2927;49.366;8.530;2022-12-05T03:56:34;68.13;;;21.00;;
5801;SDS011;2927;49.366;8.530;2022-12-05T03:59:07;69.47;;;21.67;;
5801;SDS011;2927;49.366;8.530;2022-12-05T04:01:38;66.60;;;21.30;;
5801;SDS011;2927;49.366;8.530;2022-12-05T04:04:16;64.37;;;18.97;;
5801;SDS011;2927;49.366;8.530;2022-12-05T04:06:49;63.73;;;19.53;;
5801;SDS011;2927;49.366;8.530;2022-12-05T04:09:19;69.63;;;18.57;;
5801;SDS011;2927;49.366;8.530;2022-12-05T04:11:50;59.13;;;19.00;;
5801;SDS011;2927;49.366;8.530;2022-12-05T04:14:31;68.87;;;19.50;;
5801;SDS011;2927;49.366;8.530;2022-12-05T04:17:15;68.07;;;19.47;;
5801;SDS011;2927;49.366;8.530;2022-12-05T04:19:52;74.03;;;21.37;;
5801;SDS011;2927;49.366;8.530;2022-12-05T04:22:46;69.90;;;19.93;;
5801;SDS011;2927;49.366;8.530;2022-12-05T04:25:13;57.00;;;18.93;;
5801;SDS011;2927;49.366;8.530;2022-12-05T04:30:49;81.33;;;20.23;;
5801;SDS011;2927;49.366;8.530;2022-12-05T04:38:38;65.87;;;19.33;;
5801;SDS011;2927;49.366;8.530;2022-12-05T04:41:12;56.77;;;18.87;;
5801;SDS011;2927;49.366;8.530;2022-12-05T04:43:40;60.60;;;19.30;;
5801;SDS011;2927;49.366;8.530;2022-12-05T04:46:09;53.00;;;18.10;;
5801;SDS011;2927;49.366;8.530;2022-12-05T04:48:37;61.60;;;19.70;;
5801;SDS011;2927;49.366;8.530;2022-12-05T04:51:05;63.73;;;18.87;;
5801;SDS011;2927;49.366;8.530;2022-12-05T04:53:33;55.33;;;18.20;;
5801;SDS011;2927;49.366;8.530;2022-12-05T04:56:01;64.53;;;17.10;;
5801;SDS011;2927;49.366;8.530;2022-12-05T04:58:28;68.07;;;18.07;;
5801;SDS011;2927;49.366;8.530;2022-12-05T05:01:01;45.43;;;16.50;;
5801;SDS011;2927;49.366;8.530;2022-12-05T05:03:35;58.13;;;17.73;;
5801;SDS011;2927;49.366;8.530;2022-12-05T05:06:02;75.03;;;18.40;;
5801;SDS011;2927;49.366;8.530;2022-12-05T05:08:29;65.10;;;20.00;;
5801;SDS011;2927;49.366;8.530;2022-12-05T05:13:37;60.50;;;19.00;;
5801;SDS011;2927;49.366;8.530;2022-12-05T05:16:03;63.03;;;19.27;;
5801;SDS011;2927;49.366;8.530;2022-12-05T05:18:29;72.63;;;18.60;;
5801;SDS011;2927;49.366;8.530;2022-12-05T05:20:54;72.40;;;19.00;;
5801;SDS011;2927;49.366;8.530;2022-12-05T05:23:20;74.03;;;20.67;;
5801;SDS011;2927;49.366;8.530;2022-12-05T05:25:50;63.10;;;20.50;;
5801;SDS011;2927;49.366;8.530;2022-12-05T05:28:17;61.07;;;19.47;;
5801;SDS011;2927;49.366;8.530;2022-12-05T05:30:42;60.57;;;19.50;;
5801;SDS011;2927;49.366;8.530;2022-12-05T05:33:08;67.03;;;18.00;;
5801;SDS011;2927;49.366;8.530;2022-12-05T05:35:36;80.00;;;19.80;;
5801;SDS011;2927;49.366;8.530;2022-12-05T05:38:03;73.70;;;20.83;;
5801;SDS011;2927;49.366;8.530;2022-12-05T05:40:29;66.13;;;17.30;;
5801;SDS011;2927;49.366;8.530;2022-12-05T05:42:54;64.07;;;19.87;;
5801;SDS011;2927;49.366;8.530;2022-12-05T05:45:20;60.60;;;20.60;;
5801;SDS011;2927;49.366;8.530;2022-12-05T05:47:48;75.60;;;20.07;;
5801;SDS011;2927;49.366;8.530;2022-12-05T05:50:14;77.50;;;19.10;;
5801;SDS011;2927;49.366;8.530;2022-12-05T05:52:40;59.67;;;16.80;;
5801;SDS011;2927;49.366;8.530;2022-12-05T05:55:06;58.17;;;17.47;;
5801;SDS011;2927;49.366;8.530;2022-12-05T05:57:32;69.47;;;18.83;;
5801;SDS011;2927;49.366;8.530;2022-12-05T05:59:58;62.30;;;18.70;;
5801;SDS011;2927;49.366;8.530;2022-12-05T06:02:24;51.37;;;17.17;;
5801;SDS011;2927;49.366;8.530;2022-12-05T06:04:49;56.83;;;18.67;;
5801;SDS011;2927;49.366;8.530;2022-12-05T06:07:15;55.23;;;18.10;;
5801;SDS011;2927;49.366;8.530;2022-12-05T06:09:40;49.53;;;17.13;;
5801;SDS011;2927;49.366;8.530;2022-12-05T06:12:06;66.17;;;18.53;;
5801;SDS011;2927;49.366;8.530;2022-12-05T06:14:32;54.87;;;19.33;;
5801;SDS011;2927;49.366;8.530;2022-12-05T06:16:58;64.77;;;20.37;;
5801;SDS011;2927;49.366;8.530;2022-12-05T06:19:23;58.73;;;18.90;;
5801;SDS011;2927;49.366;8.530;2022-12-05T06:21:49;50.03;;;17.90;;
5801;SDS011;2927;49.366;8.530;2022-12-05T06:24:15;54.97;;;18.27;;
5801;SDS011;2927;49.366;8.530;2022-12-05T06:26:41;57.17;;;17.97;;
5801;SDS011;2927;49.366;8.530;2022-12-05T06:29:07;51.60;;;16.33;;
5801;SDS011;2927;49.366;8.530;2022-12-05T06:31:33;48.23;;;16.47;;
5801;SDS011;2927;49.366;8.530;2022-12-05T06:33:59;55.53;;;17.00;;
5801;SDS011;2927;49.366;8.530;2022-12-05T06:36:26;63.93;;;17.70;;
5801;SDS011;2927;49.366;8.530;2022-12-05T06:38:53;59.67;;;16.90;;
5801;SDS011;2927;49.366;8.530;2022-12-05T06:41:22;46.30;;;17.33;;
5801;SDS011;2927;49.366;8.530;2022-12-05T06:43:50;50.50;;;16.80;;
5801;SDS011;2927;49.366;8.530;2022-12-05T06:46:18;42.10;;;16.67;;
5801;SDS011;2927;49.366;8.530;2022-12-05T06:48:45;53.87;;;17.23;;
5801;SDS011;2927;49.366;8.530;2022-12-05T06:51:11;44.40;;;16.20;;
5801;SDS011;2927;49.366;8.530;2022-12-05T06:53:40;61.60;;;19.50;;
5801;SDS011;2927;49.366;8.530;2022-12-05T06:56:06;51.03;;;16.63;;
5801;SDS011;2927;49.366;8.530;2022-12-05T06:58:38;59.57;;;18.07;;
5801;SDS011;2927;49.366;8.530;2022-12-05T07:01:04;46.20;;;19.30;;
5801;SDS011;2927;49.366;8.530;2022-12-05T07:03:48;48.07;;;17.17;;
5801;SDS011;2927;49.366;8.530;2022-12-05T07:06:14;57.10;;;15.80;;
5801;SDS011;2927;49.366;8.530;2022-12-05T07:08:40;49.47;;;16.90;;
5801;SDS011;2927;49.366;8.530;2022-12-05T07:11:06;52.47;;;18.27;;
5801;SDS011;2927;49.366;8.530;2022-12-05T07:13:32;58.77;;;17.30;;
5801;SDS011;2927;49.366;8.530;2022-12-05T07:15:57;51.33;;;17.03;;
5801;SDS011;2927;49.366;8.530;2022-12-05T07:18:23;50.27;;;17.00;;
5801;SDS011;2927;49.366;8.530;2022-12-05T07:20:57;47.53;;;16.67;;
5801;SDS011;2927;49.366;8.530;2022-12-05T07:23:30;54.67;;;16.63;;
5801;SDS011;2927;49.366;8.530;2022-12-05T07:25:56;52.63;;;18.77;;
5801;SDS011;2927;49.366;8.530;2022-12-05T07:28:22;58.37;;;18.70;;
5801;SDS011;2927;49.366;8.530;2022-12-05T07:30:48;58.37;;;20.90;;
5801;SDS011;2927;49.366;8.530;2022-12-05T07:33:22;68.43;;;22.67;;
5801;SDS011;2927;49.366;8.530;2022-12-05T07:35:48;59.07;;;21.20;;
5801;SDS011;2927;49.366;8.530;2022-12-05T07:38:13;69.13;;;19.53;;
5801;SDS011;2927;49.366;8.530;2022-12-05T07:40:39;67.43;;;20.90;;
5801;SDS011;2927;49.366;8.530;2022-12-05T07:43:04;52.83;;;19.00;;
5801;SDS011;2927;49.366;8.530;2022-12-05T07:45:30;57.77;;;18.70;;
5801;SDS011;2927;49.366;8.530;2022-12-05T07:47:58;61.20;;;20.80;;
5801;SDS011;2927;49.366;8.530;2022-12-05T07:50:23;64.73;;;20.37;;
5801;SDS011;2927;49.366;8.530;2022-12-05T07:52:49;86.37;;;22.20;;
5801;SDS011;2927;49.366;8.530;2022-12-05T07:55:15;50.90;;;18.60;;
5801;SDS011;2927;49.366;8.530;2022-12-05T07:57:40;66.97;;;20.07;;
5801;SDS011;2927;49.366;8.530;2022-12-05T08:00:06;58.47;;;17.70;;
5801;SDS011;2927;49.366;8.530;2022-12-05T08:02:32;53.67;;;18.37;;
5801;SDS011;2927;49.366;8.530;2022-12-05T08:04:57;55.03;;;19.00;;
5801;SDS011;2927;49.366;8.530;2022-12-05T08:07:23;61.63;;;20.10;;
5801;SDS011;2927;49.366;8.530;2022-12-05T08:09:48;69.10;;;19.23;;
5801;SDS011;2927;49.366;8.530;2022-12-05T08:12:14;56.57;;;18.17;;
5801;SDS011;2927;49.366;8.530;2022-12-05T08:14:39;70.87;;;20.50;;
5801;SDS011;2927;49.366;8.530;2022-12-05T08:17:05;69.27;;;20.23;;
5801;SDS011;2927;49.366;8.530;2022-12-05T08:19:30;64.93;;;19.83;;
5801;SDS011;2927;49.366;8.530;2022-12-05T08:21:56;58.93;;;20.60;;
5801;SDS011;2927;49.366;8.530;2022-12-05T08:24:23;65.47;;;18.47;;
5801;SDS011;2927;49.366;8.530;2022-12-05T08:26:49;60.07;;;18.67;;
5801;SDS011;2927;49.366;8.530;2022-12-05T08:29:14;61.80;;;22.30;;
5801;SDS011;2927;49.366;8.530;2022-12-05T08:31:45;62.50;;;18.60;;
5801;SDS011;2927;49.366;8.530;2022-12-05T08:34:12;56.27;;;18.50;;
5801;SDS011;2927;49.366;8.530;2022-12-05T08:36:38;45.63;;;17.03;;
5801;SDS011;2927;49.366;8.530;2022-12-05T08:39:05;60.63;;;19.50;;
5801;SDS011;2927;49.366;8.530;2022-12-05T08:41:32;43.30;;;17.57;;
5801;SDS011;2927;49.366;8.530;2022-12-05T08:43:59;50.63;;;17.90;;
5801;SDS011;2927;49.366;8.530;2022-12-05T08:46:33;50.23;;;17.97;;
5801;SDS011;2927;49.366;8.530;2022-12-05T08:49:01;48.00;;;18.83;;
5801;SDS011;2927;49.366;8.530;2022-12-05T08:51:27;60.00;;;20.93;;
5801;SDS011;2927;49.366;8.530;2022-12-05T08:53:53;41.20;;;16.43;;
5801;SDS011;2927;49.366;8.530;2022-12-05T08:56:20;52.67;;;18.57;;
5801;SDS011;2927;49.366;8.530;2022-12-05T08:58:46;47.27;;;17.70;;
5801;SDS011;2927;49.366;8.530;2022-12-05T09:01:12;41.80;;;16.97;;
5801;SDS011;2927;49.366;8.530;2022-12-05T09:03:40;45.90;;;16.30;;
5801;SDS011;2927;49.366;8.530;2022-12-05T09:06:07;33.80;;;14.60;;
5801;SDS011;2927;49.366;8.530;2022-12-05T09:08:43;33.83;;;14.57;;
5801;SDS011;2927;49.366;8.530;2022-12-05T09:11:10;45.03;;;17.00;;
5801;SDS011;2927;49.366;8.530;2022-12-05T09:13:38;36.33;;;14.93;;
5801;SDS011;2927;49.366;8.530;2022-12-05T09:16:05;39.57;;;14.87;;
5801;SDS011;2927;49.366;8.530;2022-12-05T09:18:31;36.20;;;14.63;;
5801;SDS011;2927;49.366;8.530;2022-12-05T09:20:56;47.00;;;16.23;;
5801;SDS011;2927;49.366;8.530;2022-12-05T09:23:22;40.20;;;16.53;;
5801;SDS011;2927;49.366;8.530;2022-12-05T09:25:54;33.43;;;14.80;;
5801;SDS011;2927;49.366;8.530;2022-12-05T09:28:22;32.30;;;13.70;;
5801;SDS011;2927;49.366;8.530;2022-12-05T09:31:01;36.33;;;13.90;;
5801;SDS011;2927;49.366;8.530;2022-12-05T09:33:29;29.50;;;13.40;;
5801;SDS011;2927;49.366;8.530;2022-12-05T09:35:56;34.20;;;13.40;;
5801;SDS011;2927;49.366;8.530;2022-12-05T09:38:22;32.60;;;13.90;;
5801;SDS011;2927;49.366;8.530;2022-12-05T09:40:50;32.77;;;13.27;;
5801;SDS011;2927;49.366;8.530;2022-12-05T09:46:56;36.87;;;15.00;;
5801;SDS011;2927;49.366;8.530;2022-12-05T09:49:26;36.00;;;13.47;;
5801;SDS011;2927;49.366;8.530;2022-12-05T09:51:53;32.33;;;15.20;;
5801;SDS011;2927;49.366;8.530;2022-12-05T09:54:21;31.60;;;14.27;;
5801;SDS011;2927;49.366;8.530;2022-12-05T09:56:49;27.63;;;13.53;;
5801;SDS011;2927;49.366;8.530;2022-12-05T09:59:17;25.37;;;12.50;;
5801;SDS011;2927;49.366;8.530;2022-12-05T10:04:22;34.80;;;13.80;;
5801;SDS011;2927;49.366;8.530;2022-12-05T10:15:47;24.97;;;13.70;;
5801;SDS011;2927;49.366;8.530;2022-12-05T10:21:17;33.40;;;14.90;;
5801;SDS011;2927;49.366;8.530;2022-12-05T10:24:03;29.60;;;13.37;;
5801;SDS011;2927;49.366;8.530;2022-12-05T10:26:42;29.83;;;13.07;;
5801;SDS011;2927;49.366;8.530;2022-12-05T10:29:13;36.60;;;14.80;;
5801;SDS011;2927;49.366;8.530;2022-12-05T10:31:50;23.37;;;12.90;;
5801;SDS011;2927;49.366;8.530;2022-12-05T10:34:28;28.33;;;11.67;;
5801;SDS011;2927;49.366;8.530;2022-12-05T10:37:10;23.23;;;11.93;;
5801;SDS011;2927;49.366;8.530;2022-12-05T10:39:40;26.70;;;12.03;;
5801;SDS011;2927;49.366;8.530;2022-12-05T10:42:08;29.03;;;13.60;;
5801;SDS011;2927;49.366;8.530;2022-12-05T10:44:57;27.30;;;13.63;;
5801;SDS011;2927;49.366;8.530;2022-12-05T10:47:26;28.30;;;13.17;;
5801;SDS011;2927;49.366;8.530;2022-12-05T10:49:53;29.23;;;12.77;;
5801;SDS011;2927;49.366;8.530;2022-12-05T10:52:22;22.63;;;12.10;;
5801;SDS011;2927;49.366;8.530;2022-12-05T10:54:50;26.93;;;13.10;;
5801;SDS011;2927;49.366;8.530;2022-12-05T10:57:24;30.87;;;14.40;;
5801;SDS011;2927;49.366;8.530;2022-12-05T10:59:51;24.70;;;13.10;;
5801;SDS011;2927;49.366;8.530;2022-12-05T11:02:21;27.77;;;12.93;;
5801;SDS011;2927;49.366;8.530;2022-12-05T11:04:52;33.70;;;14.87;;
5801;SDS011;2927;49.366;8.530;2022-12-05T11:09:55;28.97;;;14.90;;
5801;SDS011;2927;49.366;8.530;2022-12-05T11:15:14;30.30;;;13.47;;
5801;SDS011;2927;49.366;8.530;2022-12-05T11:17:49;22.87;;;13.57;;
5801;SDS011;2927;49.366;8.530;2022-12-05T11:22:41;33.53;;;13.40;;
5801;SDS011;2927;49.366;8.530;2022-12-05T11:27:54;36.50;;;15.67;;
5801;SDS011;2927;49.366;8.530;2022-12-05T11:30:41;29.87;;;12.87;;
5801;SDS011;2927;49.366;8.530;2022-12-05T11:33:38;31.30;;;13.47;;
5801;SDS011;2927;49.366;8.530;2022-12-05T11:38:38;25.20;;;12.57;;
5801;SDS011;2927;49.366;8.530;2022-12-05T11:41:30;28.60;;;13.57;;
5801;SDS011;2927;49.366;8.530;2022-12-05T11:55:13;31.70;;;13.73;;
5801;SDS011;2927;49.366;8.530;2022-12-05T12:00:55;29.77;;;13.23;;
5801;SDS011;2927;49.366;8.530;2022-12-05T12:06:04;25.07;;;13.87;;
5801;SDS011;2927;49.366;8.530;2022-12-05T12:09:17;34.10;;;15.07;;
5801;SDS011;2927;49.366;8.530;2022-12-05T12:12:11;24.90;;;13.50;;
5801;SDS011;2927;49.366;8.530;2022-12-05T12:17:54;37.83;;;13.90;;
5801;SDS011;2927;49.366;8.530;2022-12-05T12:26:06;27.27;;;14.63;;
5801;SDS011;2927;49.366;8.530;2022-12-05T12:32:23;25.20;;;12.73;;
5801;SDS011;2927;49.366;8.530;2022-12-05T12:40:19;30.17;;;14.83;;
5801;SDS011;2927;49.366;8.530;2022-12-05T12:51:07;23.40;;;12.43;;
5801;SDS011;2927;49.366;8.530;2022-12-05T12:53:40;23.80;;;11.93;;
5801;SDS011;2927;49.366;8.530;2022-12-05T13:07:58;35.63;;;15.47;;
5801;SDS011;2927;49.366;8.530;2022-12-05T13:10:49;25.23;;;12.20;;
5801;SDS011;2927;49.366;8.530;2022-12-05T13:13:20;26.17;;;12.50;;
5801;SDS011;2927;49.366;8.530;2022-12-05T13:15:50;27.47;;;13.97;;
5801;SDS011;2927;49.366;8.530;2022-12-05T13:18:23;27.33;;;13.37;;
5801;SDS011;2927;49.366;8.530;2022-12-05T13:20:59;21.83;;;11.67;;
5801;SDS011;2927;49.366;8.530;2022-12-05T13:23:32;27.33;;;12.83;;
5801;SDS011;2927;49.366;8.530;2022-12-05T13:26:00;30.00;;;13.50;;
5801;SDS011;2927;49.366;8.530;2022-12-05T13:31:17;29.70;;;14.10;;
5801;SDS011;2927;49.366;8.530;2022-12-05T13:33:44;27.23;;;13.90;;
5801;SDS011;2927;49.366;8.530;2022-12-05T13:36:15;34.43;;;12.60;;
5801;SDS011;2927;49.366;8.530;2022-12-05T13:39:21;30.40;;;14.07;;
5801;SDS011;2927;49.366;8.530;2022-12-05T13:42:10;28.23;;;11.17;;
5801;SDS011;2927;49.366;8.530;2022-12-05T13:44:46;23.37;;;10.40;;
5801;SDS011;2927;49.366;8.530;2022-12-05T13:47:34;17.53;;;8.57;;
5801;SDS011;2927;49.366;8.530;2022-12-05T13:50:14;17.73;;;8.30;;
5801;SDS011;2927;49.366;8.530;2022-12-05T13:52:48;18.03;;;8.57;;
5801;SDS011;2927;49.366;8.530;2022-12-05T13:57:56;8.63;;;5.77;;
5801;SDS011;2927;49.366;8.530;2022-12-05T14:00:25;9.63;;;5.60;;
5801;SDS011;2927;49.366;8.530;2022-12-05T14:02:53;6.23;;;3.50;;
5801;SDS011;2927;49.366;8.530;2022-12-05T14:07:46;3.73;;;2.50;;
5801;SDS011;2927;49.366;8.530;2022-12-05T14:12:55;3.70;;;2.73;;
5801;SDS011;2927;49.366;8.530;2022-12-05T14:15:42;3.63;;;1.90;;
5801;SDS011;2927;49.366;8.530;2022-12-05T14:34:54;2.40;;;2.17;;
5801;SDS011;2927;49.366;8.530;2022-12-05T14:37:25;6.30;;;2.13;;
5801;SDS011;2927;49.366;8.530;2022-12-05T14:39:55;2.70;;;2.20;;
5801;SDS011;2927;49.366;8.530;2022-12-05T14:42:24;4.30;;;2.53;;
5801;SDS011;2927;49.366;8.530;2022-12-05T14:44:59;1.80;;;1.70;;
5801;SDS011;2927;49.366;8.530;2022-12-05T14:47:29;2.67;;;2.47;;
5801;SDS011;2927;49.366;8.530;2022-12-05T14:55:48;1.97;;;1.87;;
5801;SDS011;2927;49.366;8.530;2022-12-05T14:58:19;6.90;;;5.07;;
5801;SDS011;2927;49.366;8.530;2022-12-05T15:00:57;3.03;;;2.73;;
5801;SDS011;2927;49.366;8.530;2022-12-05T15:03:27;3.33;;;2.80;;
5801;SDS011;2927;49.366;8.530;2022-12-05T15:05:56;2.30;;;2.10;;
5801;SDS011;2927;49.366;8.530;2022-12-05T15:08:24;2.60;;;2.17;;
5801;SDS011;2927;49.366;8.530;2022-12-05T15:10:51;3.13;;;2.20;;
5801;SDS011;2927;49.366;8.530;2022-12-05T15:13:18;2.70;;;2.50;;
5801;SDS011;2927;49.366;8.530;2022-12-05T15:18:37;3.13;;;2.47;;
5801;SDS011;2927;49.366;8.530;2022-12-05T15:23:56;1.97;;;1.57;;
5801;SDS011;2927;49.366;8.530;2022-12-05T15:26:28;3.57;;;2.60;;
5801;SDS011;2927;49.366;8.530;2022-12-05T15:29:09;61.50;;;22.00;;
5801;SDS011;2927;49.366;8.530;2022-12-05T15:34:39;8.70;;;4.87;;
5801;SDS011;2927;49.366;8.530;2022-12-05T15:45:11;4.07;;;3.43;;
5801;SDS011;2927;49.366;8.530;2022-12-05T15:53:03;2.93;;;2.37;;
5801;SDS011;2927;49.366;8.530;2022-12-05T15:55:37;2.80;;;2.60;;
5801;SDS011;2927;49.366;8.530;2022-12-05T16:00:46;4.77;;;3.33;;
5801;SDS011;2927;49.366;8.530;2022-12-05T16:03:16;3.17;;;2.47;;
5801;SDS011;2927;49.366;8.530;2022-12-05T16:06:03;5.63;;;4.07;;
5801;SDS011;2927;49.366;8.530;2022-12-05T16:08:35;9.50;;;4.10;;
5801;SDS011;2927;49.366;8.530;2022-12-05T16:11:07;2.90;;;2.70;;
5801;SDS011;2927;49.366;8.530;2022-12-05T16:13:33;7.80;;;3.57;;
5801;SDS011;2927;49.366;8.530;2022-12-05T16:15:59;8.17;;;4.83;;
5801;SDS011;2927;49.366;8.530;2022-12-05T16:18:26;4.20;;;2.93;;
5801;SDS011;2927;49.366;8.530;2022-12-05T16:20:56;7.20;;;3.80;;
5801;SDS011;2927;49.366;8.530;2022-12-05T16:25:50;13.27;;;5.00;;
5801;SDS011;2927;49.366;8.530;2022-12-05T16:28:16;4.37;;;3.43;;
5801;SDS011;2927;49.366;8.530;2022-12-05T16:30:54;6.00;;;3.90;;
5801;SDS011;2927;49.366;8.530;2022-12-05T16:33:25;7.40;;;2.80;;
5801;SDS011;2927;49.366;8.530;2022-12-05T16:35:53;4.93;;;2.90;;
5801;SDS011;2927;49.366;8.530;2022-12-05T16:43:18;2.60;;;2.40;;
5801;SDS011;2927;49.366;8.530;2022-12-05T16:45:46;2.57;;;2.37;;
5801;SDS011;2927;49.366;8.530;2022-12-05T16:48:21;3.63;;;2.60;;
5801;SDS011;2927;49.366;8.530;2022-12-05T16:53:43;2.80;;;2.60;;
5801;SDS011;2927;49.366;8.530;2022-12-05T16:56:11;3.50;;;3.30;;
5801;SDS011;2927;49.366;8.530;2022-12-05T16:58:39;2.20;;;2.00;;
5801;SDS011;2927;49.366;8.530;2022-12-05T17:01:05;3.47;;;2.00;;
5801;SDS011;2927;49.366;8.530;2022-12-05T17:03:32;2.43;;;2.23;;
5801;SDS011;2927;49.366;8.530;2022-12-05T17:05:58;2.13;;;1.93;;
5801;SDS011;2927;49.366;8.530;2022-12-05T17:08:24;2.97;;;2.00;;
5801;SDS011;2927;49.366;8.530;2022-12-05T17:10:50;2.63;;;1.63;;
5801;SDS011;2927;49.366;8.530;2022-12-05T17:13:17;2.33;;;2.20;;
5801;SDS011;2927;49.366;8.530;2022-12-05T17:15:43;2.30;;;2.17;;
5801;SDS011;2927;49.366;8.530;2022-12-05T17:18:10;1.77;;;1.67;;
5801;SDS011;2927;49.366;8.530;2022-12-05T17:20:41;1.80;;;1.67;;
5801;SDS011;2927;49.366;8.530;2022-12-05T17:23:13;2.93;;;1.50;;
5801;SDS011;2927;49.366;8.530;2022-12-05T17:25:43;2.00;;;1.90;;
5801;SDS011;2927;49.366;8.530;2022-12-05T17:28:11;1.93;;;1.73;;
5801;SDS011;2927;49.366;8.530;2022-12-05T17:30:37;1.73;;;1.63;;
5801;SDS011;2927;49.366;8.530;2022-12-05T17:33:03;1.50;;;1.37;;
5801;SDS011;2927;49.366;8.530;2022-12-05T17:35:30;1.60;;;1.33;;
5801;SDS011;2927;49.366;8.530;2022-12-05T17:37:56;3.40;;;2.10;;
5801;SDS011;2927;49.366;8.530;2022-12-05T17:40:21;3.50;;;1.87;;
5801;SDS011;2927;49.366;8.530;2022-12-05T17:42:47;1.70;;;1.60;;
5801;SDS011;2927;49.366;8.530;2022-12-05T17:45:13;2.97;;;2.67;;
5801;SDS011;2927;49.366;8.530;2022-12-05T17:47:40;2.23;;;2.03;;
5801;SDS011;2927;49.366;8.530;2022-12-05T17:50:14;2.60;;;2.40;;
5801;SDS011;2927;49.366;8.530;2022-12-05T17:52:42;4.53;;;2.77;;
5801;SDS011;2927;49.366;8.530;2022-12-05T17:55:18;3.23;;;2.93;;
5801;SDS011;2927;49.366;8.530;2022-12-05T17:57:48;3.20;;;2.87;;
5801;SDS011;2927;49.366;8.530;2022-12-05T18:00:15;3.40;;;3.00;;
5801;SDS011;2927;49.366;8.530;2022-12-05T18:02:42;5.10;;;3.63;;
5801;SDS011;2927;49.366;8.530;2022-12-05T18:05:09;4.53;;;3.13;;
5801;SDS011;2927;49.366;8.530;2022-12-05T18:07:36;4.70;;;3.47;;
5801;SDS011;2927;49.366;8.530;2022-12-05T18:10:07;7.20;;;3.63;;
5801;SDS011;2927;49.366;8.530;2022-12-05T18:12:35;5.77;;;4.87;;
5801;SDS011;2927;49.366;8.530;2022-12-05T18:15:00;4.30;;;3.60;;
5801;SDS011;2927;49.366;8.530;2022-12-05T18:17:26;6.00;;;3.20;;
5801;SDS011;2927;49.366;8.530;2022-12-05T18:19:52;6.03;;;3.50;;
5801;SDS011;2927;49.366;8.530;2022-12-05T18:22:20;7.67;;;3.57;;
5801;SDS011;2927;49.366;8.530;2022-12-05T18:24:49;4.10;;;2.97;;
5801;SDS011;2927;49.366;8.530;2022-12-05T18:27:15;6.63;;;4.23;;
5801;SDS011;2927;49.366;8.530;2022-12-05T18:29:41;10.33;;;6.20;;